Time;durP1;ratioP1;P1;durP2;ratioP2;P2;SDS_P1;SDS_P2;PMS_P1;PMS_P2;Temp;Humidity;BMP_temperature;BMP_pressure;BME280_temperature;BME280_humidity;BME280_pressure;Samples;Min_cycle;Max_cycle;Signal;HPM_P1;HPM_P2
2021/04/12 00:00:33;;;;;;;7.50;4.33;;;;;;;7.94;61.53;96190.77;1819592;79;20137;-68
2021/04/12 00:03:22;;;;;;;6.77;4.23;;;;;;;7.94;61.85;96186.39;1819069;79;21131;-68
2021/04/12 00:06:13;;;;;;;6.83;3.70;;;;;;;7.96;61.54;96189.00;1819157;79;21143;-68
2021/04/12 00:08:52;;;;;;;5.37;3.60;;;;;;;8.00;63.42;96186.82;1819191;79;21139;-68
2021/04/12 00:11:43;;;;;;;9.40;4.50;;;;;;;7.87;62.98;96184.63;1819193;78;21591;-68
2021/04/12 00:14:43;;;;;;;7.20;4.03;;;;;;;7.89;61.86;96182.87;1819091;78;21131;-68
2021/04/12 00:17:19;;;;;;;12.03;5.07;;;;;;;7.90;62.32;96179.81;1819152;79;21565;-68
2021/04/12 00:19:55;;;;;;;11.43;5.30;;;;;;;7.85;63.28;96174.55;1819161;79;21084;-68
2021/04/12 00:22:42;;;;;;;8.87;5.13;;;;;;;7.86;62.51;96168.84;1788420;79;21123;-69
2021/04/12 00:25:21;;;;;;;7.43;4.33;;;;;;;7.87;62.18;96164.05;1819329;79;21127;-69
2021/04/12 00:27:55;;;;;;;9.87;5.40;;;;;;;7.87;61.60;96162.73;1818361;79;21119;-69
2021/04/12 00:30:36;;;;;;;7.10;4.40;;;;;;;7.86;61.90;96157.92;1819622;79;21114;-68
2021/04/12 00:33:12;;;;;;;6.63;4.47;;;;;;;7.86;61.90;96157.02;1819185;78;21111;-68
2021/04/12 00:36:00;;;;;;;9.43;4.60;;;;;;;7.87;61.30;96154.41;1787474;79;21158;-68
2021/04/12 00:38:36;;;;;;;8.63;4.10;;;;;;;7.86;62.16;96157.92;1787817;79;21138;-68
2021/04/12 00:41:35;;;;;;;6.03;4.30;;;;;;;7.87;61.27;96163.61;1819124;79;21139;-68
2021/04/12 00:44:08;;;;;;;6.23;3.93;;;;;;;7.86;61.85;96155.30;1821190;78;21138;-68
2021/04/12 00:47:09;;;;;;;9.13;4.70;;;;;;;7.83;64.32;96160.97;1828146;78;21264;-68
2021/04/12 00:50:01;;;;;;;6.37;3.93;;;;;;;7.81;63.27;96157.01;1828161;78;21272;-68
2021/04/12 00:52:40;;;;;;;6.63;4.03;;;;;;;7.76;63.53;96153.09;1769260;78;21119;-68
2021/04/12 00:55:35;;;;;;;6.70;4.33;;;;;;;7.76;63.13;96146.52;1824830;78;21134;-68
2021/04/12 00:58:15;;;;;;;5.30;4.00;;;;;;;7.80;62.65;96146.08;1828239;78;21675;-69
2021/04/12 01:01:12;;;;;;;6.90;3.53;;;;;;;7.78;64.66;96147.82;1828261;78;21241;-68
2021/04/12 01:04:28;;;;;;;6.60;4.00;;;;;;;7.78;63.80;96143.44;1828025;78;21150;-68
2021/04/12 01:07:21;;;;;;;7.47;4.23;;;;;;;7.77;62.19;96138.20;1828254;78;21118;-68
2021/04/12 01:10:20;;;;;;;6.13;4.03;;;;;;;7.77;61.78;96136.89;1828262;78;21253;-68
2021/04/12 01:13:25;;;;;;;6.77;4.07;;;;;;;7.77;65.18;96138.20;1818043;78;21540;-68
2021/04/12 01:16:04;;;;;;;7.10;4.07;;;;;;;7.79;63.96;96139.08;1828119;78;21603;-68
2021/04/12 01:18:52;;;;;;;9.47;4.63;;;;;;;7.77;63.36;96133.81;1800969;78;21679;-68
2021/04/12 01:22:03;;;;;;;7.00;3.87;;;;;;;7.75;63.48;96132.93;1828254;78;21119;-68
2021/04/12 01:25:11;;;;;;;6.23;4.03;;;;;;;7.77;62.76;96132.95;1828075;78;21580;-68
2021/04/12 01:28:06;;;;;;;6.50;3.10;;;;;;;7.75;64.20;96132.93;1827622;78;21127;-68
2021/04/12 01:31:02;;;;;;;5.80;3.33;;;;;;;7.64;65.01;96134.69;1828044;78;21098;-68
2021/04/12 01:34:09;;;;;;;8.03;4.57;;;;;;;7.61;64.74;96130.75;1828051;78;21114;-68
2021/04/12 01:36:48;;;;;;;9.03;4.37;;;;;;;7.64;63.68;96137.31;1828292;78;21228;-68
2021/04/12 01:39:37;;;;;;;9.00;5.20;;;;;;;7.70;64.36;96138.62;1828358;78;21260;-68
2021/04/12 01:42:38;;;;;;;11.67;5.83;;;;;;;7.79;64.71;96136.45;1828014;78;21584;-68
2021/04/12 01:45:26;;;;;;;12.97;8.33;;;;;;;7.86;64.11;96138.22;1822714;78;21556;-68
2021/04/12 01:48:34;;;;;;;10.67;4.87;;;;;;;7.91;62.79;96138.19;1819166;78;21521;-68
2021/04/12 01:51:14;;;;;;;6.27;3.97;;;;;;;7.91;62.99;96137.78;1819065;79;21126;-68
2021/04/12 01:54:27;;;;;;;7.27;5.23;;;;;;;7.90;65.05;96132.06;1819103;78;21116;-68
2021/04/12 01:57:38;;;;;;;7.33;3.80;;;;;;;7.99;64.33;96129.90;1819261;78;21110;-68
2021/04/12 02:00:49;;;;;;;7.40;3.77;;;;;;;7.99;64.13;96128.14;1818986;79;21127;-68
2021/04/12 02:03:56;;;;;;;6.37;3.80;;;;;;;7.95;63.68;96138.20;1818970;79;21581;-68
2021/04/12 02:07:04;;;;;;;7.63;3.80;;;;;;;8.01;63.19;96128.13;1819396;78;21147;-68
2021/04/12 02:10:20;;;;;;;7.37;4.40;;;;;;;8.06;64.09;96130.75;1819247;79;21103;-68
2021/04/12 02:12:56;;;;;;;9.20;6.10;;;;;;;8.15;63.18;96132.95;1819355;78;21131;-68
2021/04/12 02:15:45;;;;;;;12.07;6.10;;;;;;;8.14;63.79;96130.30;1819307;79;21080;-68
2021/04/12 02:19:08;;;;;;;6.33;4.67;;;;;;;8.14;63.82;96125.05;1787646;79;21080;-68
2021/04/12 02:22:12;;;;;;;8.83;4.77;;;;;;;8.17;62.95;96132.95;1819211;78;21582;-68
2021/04/12 02:25:07;;;;;;;6.10;3.80;;;;;;;8.14;63.08;96135.15;1819394;79;21158;-68
2021/04/12 02:27:52;;;;;;;7.27;4.50;;;;;;;8.14;62.11;96128.99;1787471;79;21166;-68
2021/04/12 02:30:41;;;;;;;6.17;3.47;;;;;;;8.10;61.47;96128.13;1819225;78;21544;-69
2021/04/12 02:33:41;;;;;;;5.77;3.80;;;;;;;8.00;62.05;96130.33;1819244;79;21139;-68
2021/04/12 02:36:23;;;;;;;7.80;4.53;;;;;;;7.96;62.29;96126.84;1819361;79;21126;-68
2021/04/12 02:39:32;;;;;;;9.93;5.63;;;;;;;7.87;62.51;96128.13;1819299;78;21600;-68
2021/04/12 02:42:23;;;;;;;8.23;5.43;;;;;;;7.84;62.59;96129.86;1819259;79;21514;-68
2021/04/12 02:45:17;;;;;;;8.00;5.07;;;;;;;7.85;62.47;96127.70;1819196;78;21169;-68
2021/04/12 02:48:23;;;;;;;8.43;4.10;;;;;;;7.82;63.64;96135.14;1819295;78;21530;-68
2021/04/12 02:51:05;;;;;;;6.67;4.03;;;;;;;7.77;63.29;96129.87;1819099;78;21589;-68
2021/04/12 02:54:25;;;;;;;6.27;3.43;;;;;;;7.78;62.58;96132.92;1787853;79;21155;-68
2021/04/12 02:57:32;;;;;;;4.63;3.47;;;;;;;7.76;63.05;96127.23;1819278;79;21142;-68
2021/04/12 03:00:27;;;;;;;5.07;2.93;;;;;;;7.72;62.57;96126.37;1817944;79;21127;-68
2021/04/12 03:03:29;;;;;;;5.70;3.50;;;;;;;7.67;62.04;96128.11;1819400;79;21510;-68
2021/04/12 03:06:20;;;;;;;7.10;3.60;;;;;;;7.68;61.89;96121.11;1819170;78;21146;-68
2021/04/12 03:09:16;;;;;;;6.97;4.23;;;;;;;7.68;61.79;96128.54;1819234;78;21079;-68
2021/04/12 03:11:55;;;;;;;8.93;3.93;;;;;;;7.66;62.63;96125.47;1819301;78;21131;-68
2021/04/12 03:14:46;;;;;;;6.87;4.07;;;;;;;7.61;64.13;96126.80;1780263;80;21143;-68
2021/04/12 03:17:58;;;;;;;5.00;3.20;;;;;;;7.57;64.09;96125.91;1819448;79;21134;-68
2021/04/12 03:20:51;;;;;;;10.63;4.37;;;;;;;7.55;65.27;96123.71;1819073;78;21147;-68
2021/04/12 03:24:01;;;;;;;7.83;3.70;;;;;;;7.52;63.51;96118.91;1819694;78;21534;-68
2021/04/12 03:26:53;;;;;;;6.83;3.97;;;;;;;7.53;63.97;96118.92;1819374;79;21103;-68
2021/04/12 03:29:45;;;;;;;7.03;3.80;;;;;;;7.51;63.84;96113.19;1819310;78;21122;-68
2021/04/12 03:32:48;;;;;;;7.67;3.90;;;;;;;7.52;63.75;96114.97;1819389;78;21138;-68
2021/04/12 03:35:28;;;;;;;6.17;3.97;;;;;;;7.50;63.48;96112.33;1819294;79;21534;-68
2021/04/12 03:38:16;;;;;;;7.87;3.60;;;;;;;7.53;63.08;96114.98;1783687;79;21099;-68
2021/04/12 03:41:15;;;;;;;10.40;3.70;;;;;;;7.53;62.75;96110.14;1819108;78;21581;-68
2021/04/12 03:44:27;;;;;;;7.47;4.20;;;;;;;7.57;62.29;96113.22;1819605;79;21107;-68
2021/04/12 03:47:36;;;;;;;6.80;4.03;;;;;;;7.57;63.27;96110.59;1819209;78;21130;-68
2021/04/12 03:50:38;;;;;;;11.10;4.50;;;;;;;7.53;64.09;96114.08;1819116;79;21111;-68
2021/04/12 03:53:47;;;;;;;11.20;5.57;;;;;;;7.53;63.62;96113.67;1819224;79;21633;-68
2021/04/12 03:56:48;;;;;;;13.57;7.10;;;;;;;7.54;63.37;96115.41;1819164;78;21549;-68
2021/04/12 03:59:25;;;;;;;6.27;3.60;;;;;;;7.55;63.72;96113.65;1819005;79;21592;-68
2021/04/12 04:02:22;;;;;;;6.17;4.03;;;;;;;7.54;63.93;96119.79;1817873;79;21174;-68
2021/04/12 04:05:14;;;;;;;24.97;15.40;;;;;;;7.50;62.93;96121.52;1720508;83;21160;-68
2021/04/12 04:08:08;;;;;;;9.07;5.77;;;;;;;7.46;63.81;96125.03;1804931;79;21154;-68
2021/04/12 04:10:59;;;;;;;7.97;4.77;;;;;;;7.50;63.34;96124.14;1819266;79;21091;-68
2021/04/12 04:13:57;;;;;;;8.70;4.57;;;;;;;7.50;63.14;96123.27;1819390;78;21118;-68
2021/04/12 04:16:44;;;;;;;10.03;5.50;;;;;;;7.51;62.98;96119.34;1819052;79;21581;-68
2021/04/12 04:19:26;;;;;;;6.93;4.43;;;;;;;7.56;62.79;96119.36;1819338;79;21115;-68
2021/04/12 04:22:26;;;;;;;18.30;10.00;;;;;;;7.53;63.58;96118.02;1751463;80;21558;-68
2021/04/12 04:25:10;;;;;;;12.67;6.30;;;;;;;7.54;64.31;96121.10;1819440;78;21134;-68
2021/04/12 04:27:58;;;;;;;6.23;3.97;;;;;;;7.54;63.36;96123.73;1806745;79;21546;-68
2021/04/12 04:30:53;;;;;;;9.23;4.77;;;;;;;7.49;63.58;96121.53;1818931;79;21127;-68
2021/04/12 04:34:04;;;;;;;5.90;3.93;;;;;;;7.48;63.71;96118.00;1819562;78;21150;-68
2021/04/12 04:37:00;;;;;;;5.83;3.47;;;;;;;7.51;63.83;96118.03;1819429;79;21580;-68
2021/04/12 04:39:56;;;;;;;15.73;7.53;;;;;;;7.51;63.38;96121.97;1819431;78;21107;-68
2021/04/12 04:42:57;;;;;;;10.93;6.20;;;;;;;7.55;64.65;96122.39;1819082;78;21134;-68
2021/04/12 04:45:53;;;;;;;6.33;3.73;;;;;;;7.65;64.20;96130.30;1818615;79;21130;-68
2021/04/12 04:48:44;;;;;;;11.70;5.93;;;;;;;7.70;63.45;96129.87;1819164;78;21139;-68
2021/04/12 04:52:03;;;;;;;11.87;6.97;;;;;;;7.74;63.79;96123.31;1819344;79;21107;-68
2021/04/12 04:55:01;;;;;;;21.60;11.43;;;;;;;7.79;63.32;96127.27;1819316;79;21126;-68
2021/04/12 04:58:03;;;;;;;16.60;10.00;;;;;;;7.86;63.97;96131.65;1819016;79;21126;-68
2021/04/12 05:01:16;;;;;;;16.90;9.60;;;;;;;7.90;64.28;96124.62;1819214;78;21131;-68
2021/04/12 05:04:23;;;;;;;19.73;10.60;;;;;;;7.98;64.17;96130.75;1788213;79;21569;-68
2021/04/12 05:07:19;;;;;;;23.03;13.43;;;;;;;8.05;64.06;96119.81;1779261;79;21146;-68
2021/04/12 05:10:15;;;;;;;30.87;15.67;;;;;;;8.11;65.25;96119.36;1819078;79;21091;-68
2021/04/12 05:13:10;;;;;;;17.77;8.97;;;;;;;8.18;63.89;96126.81;1818988;78;21155;-68
2021/04/12 05:16:16;;;;;;;17.83;9.50;;;;;;;8.26;63.23;96122.41;1732638;83;21128;-68
2021/04/12 05:19:31;;;;;;;14.17;7.90;;;;;;;8.45;62.87;96117.61;1780621;79;23354;-68
2021/04/12 05:22:39;;;;;;;47.10;24.80;;;;;;;8.45;61.90;96118.05;1753800;81;21579;-68
2021/04/12 05:25:46;;;;;;;50.17;25.67;;;;;;;8.53;61.88;96122.84;1754147;82;21160;-68
2021/04/12 05:28:42;;;;;;;62.00;30.87;;;;;;;8.64;61.46;96123.72;1754074;82;21571;-68
2021/04/12 05:31:59;;;;;;;24.77;12.77;;;;;;;8.72;61.36;96131.59;1753969;81;21137;-68
2021/04/12 05:35:09;;;;;;;35.60;14.53;;;;;;;8.82;61.41;96132.41;1753950;82;21153;-68
2021/04/12 05:38:15;;;;;;;48.70;24.07;;;;;;;8.89;61.24;96120.98;1754214;82;21148;-68
2021/04/12 05:41:04;;;;;;;33.60;21.77;;;;;;;8.96;61.44;96116.13;1724296;82;21142;-68
2021/04/12 05:44:04;;;;;;;34.23;21.30;;;;;;;9.02;60.67;96110.87;1754267;82;21140;-68
2021/04/12 05:47:04;;;;;;;36.63;19.70;;;;;;;9.04;60.05;96115.66;1754101;82;21142;-68
2021/04/12 05:49:58;;;;;;;26.13;15.27;;;;;;;9.02;60.70;96116.13;1724979;82;21133;-68
2021/04/12 05:53:05;;;;;;;28.20;15.20;;;;;;;9.02;62.23;96121.39;1752424;81;21599;-68
2021/04/12 05:56:10;;;;;;;34.53;17.70;;;;;;;9.00;61.73;96116.57;1753852;81;21141;-68
2021/04/12 05:59:09;;;;;;;44.67;18.13;;;;;;;8.98;61.35;96106.48;1754105;82;21165;-68
2021/04/12 06:02:04;;;;;;;51.90;22.53;;;;;;;8.97;63.01;96110.02;1753850;81;21117;-68
2021/04/12 06:05:19;;;;;;;50.90;25.63;;;;;;;8.93;61.18;96106.94;1754010;81;21082;-68
2021/04/12 06:07:58;;;;;;;43.40;22.43;;;;;;;8.93;60.95;96109.58;1754169;81;21110;-68
2021/04/12 06:11:01;;;;;;;39.93;20.87;;;;;;;8.93;60.68;96100.81;1754008;82;21098;-68
2021/04/12 06:14:16;;;;;;;46.50;27.73;;;;;;;8.91;61.23;96104.75;1688181;84;21174;-68
2021/04/12 06:17:21;;;;;;;47.13;26.63;;;;;;;8.98;60.74;96110.43;1687843;84;21186;-68
2021/04/12 06:20:27;;;;;;;27.13;18.10;;;;;;;9.12;59.46;96103.77;1762633;81;21125;-68
2021/04/12 06:23:34;;;;;;;24.33;13.77;;;;;;;9.37;59.20;96097.94;1762433;81;21177;-68
2021/04/12 06:26:43;;;;;;;21.40;13.40;;;;;;;9.68;58.85;96097.77;1762669;81;21168;-68
2021/04/12 06:29:49;;;;;;;26.13;15.23;;;;;;;9.93;58.12;96096.69;1762396;81;21148;-68
2021/04/12 06:33:12;;;;;;;17.40;11.20;;;;;;;10.18;56.37;96091.22;1762065;81;21531;-68
2021/04/12 06:35:48;;;;;;;12.60;6.93;;;;;;;10.44;54.22;96088.35;1762122;81;21132;-68
2021/04/12 06:38:47;;;;;;;12.40;6.80;;;;;;;10.70;50.15;96088.52;1762243;81;21149;-68
2021/04/12 06:42:03;;;;;;;9.97;5.77;;;;;;;10.92;49.37;96082.55;1761950;81;21271;-68
2021/04/12 06:45:03;;;;;;;7.67;4.70;;;;;;;11.14;49.00;96077.42;1761999;81;21299;-68
2021/04/12 06:48:20;;;;;;;12.90;7.10;;;;;;;11.38;49.32;96070.05;1762090;81;21137;-68
2021/04/12 06:51:12;;;;;;;14.73;7.80;;;;;;;11.58;46.36;96073.73;1761978;81;21299;-68
2021/04/12 06:54:35;;;;;;;10.80;5.58;;;;;;;11.79;43.23;96067.23;1762376;81;21133;-68
2021/04/12 06:57:11;;;;;;;8.60;5.20;;;;;;;11.97;42.11;96077.57;1761929;81;21563;-68
2021/04/12 06:59:53;;;;;;;11.93;5.70;;;;;;;12.16;42.20;96079.44;1757825;81;21291;-68
2021/04/12 07:03:00;;;;;;;10.83;5.63;;;;;;;12.37;43.78;96083.48;1761295;81;21128;-68
2021/04/12 07:05:58;;;;;;;10.50;6.10;;;;;;;12.50;39.94;96065.17;1762205;81;21102;-68
2021/04/12 07:09:25;;;;;;;8.50;5.17;;;;;;;12.63;41.27;96068.92;1761930;81;21280;-68
2021/04/12 07:12:32;;;;;;;11.70;5.93;;;;;;;12.81;42.32;96065.91;1762230;81;21113;-68
2021/04/12 07:15:42;;;;;;;9.40;5.30;;;;;;;12.92;38.73;96067.87;1762146;81;21543;-68
2021/04/12 07:18:38;;;;;;;10.33;5.77;;;;;;;13.07;40.77;96058.73;1758184;81;21599;-68
2021/04/12 07:21:46;;;;;;;28.47;18.60;;;;;;;13.24;41.28;96060.18;1753949;82;21141;-69
2021/04/12 07:24:25;;;;;;;8.07;4.77;;;;;;;13.38;37.36;96056.78;1754367;82;21561;-68
2021/04/12 07:27:22;;;;;;;11.10;4.83;;;;;;;13.52;37.06;96060.47;1753449;82;21619;-69
2021/04/12 07:30:38;;;;;;;8.00;4.10;;;;;;;13.61;38.45;96054.51;1754396;82;21496;-68
2021/04/12 07:33:38;;;;;;;8.37;4.77;;;;;;;13.80;37.92;96052.73;1753550;82;21106;-69
2021/04/12 07:36:45;;;;;;;9.67;5.00;;;;;;;13.90;35.21;96046.77;1754260;82;21117;-69
2021/04/12 07:40:07;;;;;;;8.43;4.87;;;;;;;14.05;36.68;96052.55;1753014;82;21634;-69
2021/04/12 07:43:15;;;;;;;6.80;4.80;;;;;;;14.21;34.26;96045.10;1751749;82;21137;-68
2021/04/12 07:46:11;;;;;;;11.00;6.80;;;;;;;14.42;37.36;96042.33;1754258;81;21156;-69
2021/04/12 07:48:55;;;;;;;9.40;4.37;;;;;;;14.60;33.98;96039.67;1753711;82;21137;-69
2021/04/12 07:51:50;;;;;;;9.70;4.73;;;;;;;14.77;36.49;96039.67;1712416;82;21607;-69
2021/04/12 07:54:45;;;;;;;5.07;3.40;;;;;;;14.95;35.62;96038.28;1753634;82;21125;-69
2021/04/12 07:57:44;;;;;;;5.43;3.50;;;;;;;15.12;33.58;96035.55;1751295;82;21179;-69
2021/04/12 08:00:40;;;;;;;6.30;3.73;;;;;;;15.27;33.07;96037.31;1754135;82;21157;-69
2021/04/12 08:03:48;;;;;;;6.37;4.37;;;;;;;15.38;33.66;96033.89;1754245;82;21094;-69
2021/04/12 08:06:58;;;;;;;10.27;5.50;;;;;;;15.48;31.72;96021.19;1754226;82;21118;-68
2021/04/12 08:10:01;;;;;;;10.87;5.13;;;;;;;15.61;32.07;96013.70;1754403;82;21137;-69
2021/04/12 08:12:53;;;;;;;8.27;4.33;;;;;;;15.86;32.97;96015.14;1754350;82;21560;-69
2021/04/12 08:16:03;;;;;;;8.43;5.03;;;;;;;16.11;33.33;96005.88;1754249;82;21556;-69
2021/04/12 08:19:01;;;;;;;9.80;5.40;;;;;;;16.17;31.76;96010.52;1754223;82;21160;-69
2021/04/12 08:22:13;;;;;;;10.77;5.80;;;;;;;16.18;31.38;96012.28;1754227;82;21536;-69
2021/04/12 08:24:57;;;;;;;9.20;4.63;;;;;;;16.34;31.13;96005.95;1754398;82;21121;-69
2021/04/12 08:27:45;;;;;;;5.80;4.23;;;;;;;16.56;31.16;96006.55;1754620;81;21264;-69
2021/04/12 08:30:40;;;;;;;7.07;4.03;;;;;;;16.74;30.48;95997.89;1754138;81;21129;-69
2021/04/12 08:33:49;;;;;;;9.40;3.70;;;;;;;16.91;31.15;96000.41;1754184;81;21113;-69
2021/04/12 08:36:51;;;;;;;6.47;3.30;;;;;;;17.11;30.04;96005.00;1698794;84;21195;-69
2021/04/12 08:39:53;;;;;;;6.13;3.30;;;;;;;17.21;29.92;96001.95;1754425;82;21117;-69
2021/04/12 08:43:03;;;;;;;7.50;3.33;;;;;;;17.29;30.97;95994.52;1754010;81;21137;-69
2021/04/12 08:45:56;;;;;;;7.50;3.53;;;;;;;17.40;30.15;95996.77;1754321;82;21544;-69
2021/04/12 08:48:34;;;;;;;10.20;4.35;;;;;;;17.51;30.69;95993.23;1754108;81;21169;-69
2021/04/12 08:51:30;;;;;;;6.30;4.00;;;;;;;17.72;25.85;95986.16;1752140;82;21138;-69
2021/04/12 08:54:37;;;;;;;6.17;3.47;;;;;;;17.92;28.08;95982.70;1754346;82;21141;-69
2021/04/12 08:57:46;;;;;;;5.03;3.13;;;;;;;18.10;28.35;95969.05;1754085;82;21152;-69
2021/04/12 09:00:42;;;;;;;7.43;3.93;;;;;;;18.14;26.20;95972.00;1754089;82;21086;-69
2021/04/12 09:03:29;;;;;;;7.90;3.90;;;;;;;18.20;29.10;95972.20;1753974;82;21552;-68
2021/04/12 09:06:51;;;;;;;8.63;3.92;;;;;;;18.43;28.58;95965.00;1753038;82;21130;-69
2021/04/12 09:10:16;;;;;;;6.57;3.67;;;;;;;18.44;28.81;95962.72;1698569;84;21175;-69
2021/04/12 09:13:18;;;;;;;7.30;3.57;;;;;;;18.65;28.05;95962.23;1754159;82;21185;-69
2021/04/12 09:16:17;;;;;;;7.25;3.87;;;;;;;18.89;27.75;95953.62;1754270;82;21126;-69
2021/04/12 09:19:08;;;;;;;7.15;3.72;;;;;;;19.02;26.80;95950.77;1754020;82;21571;-69
2021/04/12 09:22:04;;;;;;;6.08;3.80;;;;;;;19.13;27.57;95948.96;1754154;81;21125;-69
2021/04/12 09:25:06;;;;;;;8.08;3.90;;;;;;;19.18;27.85;95954.96;1754102;81;21090;-69
2021/04/12 09:28:05;;;;;;;9.40;4.13;;;;;;;19.48;27.63;95945.06;1820177;79;22806;-69
2021/04/12 09:31:11;;;;;;;7.30;3.95;;;;;;;19.48;27.64;95951.75;1793554;80;21126;-69
2021/04/12 09:34:08;;;;;;;6.10;3.80;;;;;;;19.74;27.84;95950.54;1793533;80;21156;-69
2021/04/12 09:36:54;;;;;;;7.08;3.95;;;;;;;19.88;25.70;95942.22;1763533;80;21161;-69
2021/04/12 09:39:36;;;;;;;6.97;3.72;;;;;;;19.96;26.17;95943.17;1793159;80;21148;-69
2021/04/12 09:42:29;;;;;;;8.28;3.83;;;;;;;20.05;24.22;95931.12;1793302;80;21135;-69
2021/04/12 09:45:45;;;;;;;32.00;13.60;;;;;;;20.08;26.03;95920.23;1793666;80;21702;-69
2021/04/12 09:48:33;;;;;;;12.85;5.00;;;;;;;20.29;25.84;95924.52;1793493;80;21294;-69
2021/04/12 09:51:40;;;;;;;9.65;4.30;;;;;;;20.62;24.27;95919.70;1793842;80;21267;-69
2021/04/12 09:54:37;;;;;;;14.53;8.48;;;;;;;21.00;26.79;95918.11;1793624;80;21270;-69
2021/04/12 09:57:20;;;;;;;18.10;9.63;;;;;;;21.51;26.17;95912.64;1793608;80;21141;-69
2021/04/12 10:00:28;;;;;;;11.53;6.58;;;;;;;21.88;26.63;95915.42;1793711;80;21304;-69
2021/04/12 10:03:19;;;;;;;8.85;6.03;;;;;;;21.88;23.38;95911.39;1793400;80;21117;-69
2021/04/12 10:06:09;;;;;;;54.33;26.42;;;;;;;22.23;25.76;95912.03;1793683;80;21560;-69
2021/04/12 10:08:48;;;;;;;21.00;14.70;;;;;;;22.18;24.04;95906.52;1758905;80;21100;-69
2021/04/12 10:11:20;;;;;;;8.63;4.50;;;;;;;21.97;24.12;95913.55;1791976;80;21245;-69
2021/04/12 10:14:12;;;;;;;10.72;3.58;;;;;;;22.20;23.86;95906.84;1793774;80;21267;-69
2021/04/12 10:17:03;;;;;;;8.83;3.95;;;;;;;21.99;23.88;95908.93;1793579;80;21674;-69
2021/04/12 10:19:40;;;;;;;6.50;3.58;;;;;;;22.01;22.12;95903.00;1793603;80;21093;-69
2021/04/12 10:22:14;;;;;;;7.33;3.67;;;;;;;21.77;23.02;95894.57;1789936;80;21153;-69
2021/04/12 10:24:55;;;;;;;8.50;4.05;;;;;;;21.78;21.96;95897.62;1793490;80;21098;-69
2021/04/12 10:27:46;;;;;;;11.93;8.38;;;;;;;21.78;22.86;95892.26;1789580;80;21161;-69
2021/04/12 10:30:35;;;;;;;7.05;3.92;;;;;;;21.96;23.28;95894.34;1788587;80;21567;-69
2021/04/12 10:33:11;;;;;;;7.83;3.50;;;;;;;22.08;22.03;95881.16;1788624;80;21146;-69
2021/04/12 10:35:55;;;;;;;7.53;3.85;;;;;;;22.10;22.33;95880.11;1788417;80;21125;-69
2021/04/12 10:38:31;;;;;;;6.20;3.47;;;;;;;22.25;22.71;95870.26;1788487;80;21587;-69
2021/04/12 10:41:24;;;;;;;9.53;3.83;;;;;;;22.39;21.82;95865.41;1787889;80;21287;-69
2021/04/12 10:44:17;;;;;;;5.67;3.42;;;;;;;22.60;21.71;95856.48;1785620;80;21149;-69
2021/04/12 10:47:07;;;;;;;9.28;4.85;;;;;;;22.62;23.33;95856.78;1749987;80;21145;-69
2021/04/12 10:50:13;;;;;;;5.12;3.40;;;;;;;22.83;21.87;95855.94;1788026;80;21129;-69
2021/04/12 10:53:03;;;;;;;6.80;4.08;;;;;;;22.74;21.71;95859.19;1788108;80;21120;-69
2021/04/12 10:55:38;;;;;;;9.30;4.72;;;;;;;22.87;22.91;95854.76;1787878;80;21595;-69
2021/04/12 10:58:33;;;;;;;10.70;4.72;;;;;;;23.07;23.99;95849.48;1788021;80;21195;-69
2021/04/12 11:01:08;;;;;;;11.97;3.98;;;;;;;23.14;24.08;95856.70;1787890;80;21284;-69
2021/04/12 11:03:50;;;;;;;7.92;4.17;;;;;;;22.76;22.74;95861.31;1787662;80;21279;-69
2021/04/12 11:06:46;;;;;;;6.40;4.10;;;;;;;22.42;23.82;95863.87;1788649;80;21141;-69
2021/04/12 11:09:39;;;;;;;10.05;4.00;;;;;;;22.27;24.34;95856.25;1787736;80;21276;-69
2021/04/12 11:12:33;;;;;;;9.63;3.80;;;;;;;22.13;21.96;95850.84;1787883;80;21137;-69
2021/04/12 11:15:12;;;;;;;12.47;4.05;;;;;;;22.23;20.85;95848.88;1787854;80;21276;-69
2021/04/12 11:18:03;;;;;;;8.85;3.95;;;;;;;22.23;20.85;95848.88;1787915;80;21261;-69
2021/04/12 11:21:07;;;;;;;8.23;3.80;;;;;;;22.09;21.08;95844.77;1788225;80;21146;-69
2021/04/12 11:23:49;;;;;;;8.40;3.80;;;;;;;22.41;23.57;95834.78;1787557;80;21698;-69
2021/04/12 11:26:50;;;;;;;9.18;4.25;;;;;;;23.09;21.63;95822.48;1787428;80;21263;-69
2021/04/12 11:29:31;;;;;;;8.18;4.60;;;;;;;23.12;20.37;95829.02;1785211;80;21248;-69
2021/04/12 11:32:35;;;;;;;8.90;3.90;;;;;;;23.86;22.79;95810.20;1785168;80;21129;-69
2021/04/12 11:35:08;;;;;;;7.03;4.10;;;;;;;24.41;20.94;95810.94;1784113;80;21726;-69
2021/04/12 11:37:53;;;;;;;7.62;4.10;;;;;;;24.33;20.42;95802.53;1785191;80;21133;-69
2021/04/12 11:40:32;;;;;;;9.63;3.98;;;;;;;24.18;20.74;95806.66;1785140;80;21276;-69
2021/04/12 11:43:06;;;;;;;9.00;3.22;;;;;;;24.76;18.77;95801.72;1785416;80;21094;-69
2021/04/12 11:45:38;;;;;;;13.60;4.72;;;;;;;25.19;19.70;95794.58;1785553;80;21152;-69
2021/04/12 11:48:27;;;;;;;9.73;4.12;;;;;;;25.43;19.36;95788.36;1784985;80;21678;-70
2021/04/12 11:51:04;;;;;;;7.90;3.47;;;;;;;25.78;17.99;95788.41;1780001;80;21580;-69
2021/04/12 11:53:46;;;;;;;8.63;3.90;;;;;;;26.29;20.25;95784.53;1785073;80;21260;-70
2021/04/12 11:56:45;;;;;;;;;;;;;;;26.95;19.24;95790.14;1779817;80;21169;-70
2021/04/12 11:59:35;;;;;;;7.12;3.52;;;;;;;27.33;17.63;95783.48;1785089;80;20539;-69
2021/04/12 12:02:49;;;;;;;9.28;3.05;;;;;;;27.35;16.17;95778.80;1785410;80;21105;-69
2021/04/12 12:05:37;;;;;;;9.00;2.90;;;;;;;27.13;17.02;95779.16;1785046;80;21146;-70
2021/04/12 12:08:10;;;;;;;8.18;3.12;;;;;;;27.21;17.38;95775.00;1785191;80;21137;-70
2021/04/12 12:11:03;;;;;;;10.48;3.65;;;;;;;27.66;16.16;95774.39;1785089;80;21706;-70
2021/04/12 12:13:48;;;;;;;8.38;3.75;;;;;;;28.01;17.82;95774.14;1756962;80;21162;-70
2021/04/12 12:16:31;;;;;;;10.15;3.67;;;;;;;28.24;15.12;95769.45;1785333;80;21126;-70
2021/04/12 12:19:14;;;;;;;8.65;3.47;;;;;;;28.88;16.29;95763.49;1785012;80;21118;-70
2021/04/12 12:22:00;;;;;;;6.53;3.70;;;;;;;29.07;15.37;95754.06;1785631;80;21255;-70
2021/04/12 12:24:45;;;;;;;7.33;3.47;;;;;;;29.00;16.10;95753.36;1784836;80;21129;-70
2021/04/12 12:27:24;;;;;;;8.93;2.75;;;;;;;29.24;17.58;95753.91;1714867;82;21182;-70
2021/04/12 12:30:21;;;;;;;7.92;3.02;;;;;;;29.42;17.29;95752.72;1752562;82;21142;-70
2021/04/12 12:32:55;;;;;;;6.70;2.90;;;;;;;28.92;15.51;95749.98;1753742;82;21162;-70
2021/04/12 12:35:31;;;;;;;7.37;3.17;;;;;;;27.95;17.15;95756.20;1753865;82;21150;-70
2021/04/12 12:38:27;;;;;;;13.62;3.72;;;;;;;28.12;16.67;95743.88;1753943;82;21601;-70
2021/04/12 12:41:02;;;;;;;7.95;3.70;;;;;;;27.83;15.00;95741.82;1753652;82;21139;-70
2021/04/12 12:43:34;;;;;;;11.08;3.77;;;;;;;27.71;15.29;95732.84;1754175;82;21107;-70
2021/04/12 12:46:25;;;;;;;11.48;4.80;;;;;;;27.23;16.51;95729.69;1754012;82;21186;-70
2021/04/12 12:49:05;;;;;;;8.23;4.75;;;;;;;26.89;16.04;95729.23;1753939;82;21545;-70
2021/04/12 12:51:54;;;;;;;10.68;3.70;;;;;;;26.23;18.29;95732.25;1754049;82;21159;-70
2021/04/12 12:54:29;;;;;;;7.65;4.20;;;;;;;25.72;18.13;95727.20;1753918;81;21163;-70
2021/04/12 12:57:11;;;;;;;8.95;3.60;;;;;;;25.12;18.27;95727.62;1753793;82;21139;-69
2021/04/12 12:59:49;;;;;;;7.60;3.33;;;;;;;24.73;18.70;95727.74;1743942;82;21108;-70
2021/04/12 13:02:31;;;;;;;7.80;3.58;;;;;;;24.46;19.44;95729.73;1753802;82;21103;-69
2021/04/12 13:05:10;;;;;;;7.47;3.30;;;;;;;24.13;19.72;95729.28;1753827;82;21143;-69
2021/04/12 13:07:40;;;;;;;7.40;3.80;;;;;;;23.62;20.68;95728.34;1753710;82;21127;-70
2021/04/12 13:10:28;;;;;;;10.55;3.72;;;;;;;23.34;20.57;95720.80;1753925;82;21144;-70
2021/04/12 13:12:57;;;;;;;7.67;3.50;;;;;;;22.95;21.69;95724.25;1718149;82;21588;-70
2021/04/12 13:15:36;;;;;;;9.40;3.47;;;;;;;22.82;21.86;95730.44;1753852;82;21111;-70
2021/04/12 13:18:15;;;;;;;7.65;3.55;;;;;;;23.06;21.84;95721.77;1753832;81;21151;-70
2021/04/12 13:20:51;;;;;;;11.57;3.87;;;;;;;23.12;21.81;95725.39;1753995;82;21183;-70
2021/04/12 13:23:24;;;;;;;8.30;3.65;;;;;;;22.83;22.15;95717.38;1753501;82;21584;-70
2021/04/12 13:25:55;;;;;;;11.05;4.03;;;;;;;23.02;21.68;95718.41;1753788;82;21591;-70
2021/04/12 13:28:28;;;;;;;10.40;3.40;;;;;;;23.68;21.39;95716.65;1778202;80;21168;-70
2021/04/12 13:31:05;;;;;;;15.25;3.83;;;;;;;24.05;21.10;95710.09;1785378;80;21144;-70
2021/04/12 13:33:46;;;;;;;8.30;3.40;;;;;;;24.22;20.03;95707.56;1785039;80;21304;-70
2021/04/12 13:36:24;;;;;;;10.63;3.40;;;;;;;24.38;21.25;95716.27;1785324;80;21142;-70
2021/04/12 13:38:55;;;;;;;8.13;4.47;;;;;;;24.45;20.06;95709.11;1785044;80;21528;-70